Main page
METAR-TAF:

METAR-TAF

Airports :

Riyadh, Saudi Arabia

King Khalid International Airport

latitude: 24-56N, longitude: 046-43E, elevation: 614 m

Current weather observation

The report was made 32 minutes ago, at 20:00 UTC
Wind 4 kt from the Northwest
Temperature 27°C
Humidity 28%
Pressure 1015 hPa
Visibility 10 km or more
Scattered clouds at a height of 4000 ft
Broken clouds at a height of 8000 ft

METAR: OERK 302000Z 31004KT 9999 SCT040 BKN080 27/07 Q1015 NOSIG

Time: 23:32 (20:32 UTC)

Forecast

The report was made 3 hours and 32 minutes ago, at 17:00 UTC
Forecast valid from 30 at 18 UTC to 01 at 24 UTC
Wind 6 kt from the Northwest with gusts up to 16 kt
Visibility: 7000 m
Scattered clouds at a height of 4000 ft
Broken clouds at a height of 8000 ft
Temporary
from 30 at 18 UTC to 01 at 06 UTC
Visibility: 3000 m
Few clouds at a height of 3500 ft, Cumulonimbus.
thunderstorm, rain

TAF: OERK 301700Z 3018/0124 32006G16KT 7000 SCT040 BKN080 TEMPO 3018/0106 3000 DLDU TSRA FEW035CB

Weather observations and forecasts of more than 4000 airports (METAR and TAF reports).

The available stations are represented by yellow and red dots on the map.

Hover mouse over dot to see the name of the station.

Then click to see weather observations and forecasts.

To change the map : click on the green buttons with a black cross to zoom in, on the green button with a dash to zoom out, or on the green arrows for adjacent maps.


METAR-TAF: